createdAt,value
2023-05-19T00:01:25.083Z,62.67
2023-05-19T00:06:31.954Z,63.31
2023-05-19T00:11:38.055Z,63.48
2023-05-19T00:16:42.354Z,63.53
2023-05-19T00:21:45.243Z,63.79
2023-05-19T00:26:48.147Z,63.96
2023-05-19T00:31:51.183Z,64.44
2023-05-19T00:36:54.055Z,64.72
2023-05-19T00:41:56.965Z,64.59
2023-05-19T00:46:59.904Z,64.35
2023-05-19T00:52:03.410Z,64.18
2023-05-19T00:57:06.933Z,64.43
2023-05-19T01:02:10.038Z,64.81
2023-05-19T01:07:12.943Z,65.17
2023-05-19T01:12:16.372Z,65.63
2023-05-19T01:17:49.688Z,65.58
2023-05-19T01:24:04.940Z,65.74
2023-05-19T01:29:40.195Z,65.96
2023-05-19T01:34:46.495Z,66.10
2023-05-19T01:39:50.505Z,66.36
2023-05-19T01:44:54.943Z,67.08
2023-05-19T01:49:57.903Z,67.32
2023-05-19T01:55:00.991Z,67.38
2023-05-19T02:00:23.843Z,67.29
2023-05-19T02:06:01.028Z,66.85
2023-05-19T02:11:21.797Z,67.45
2023-05-19T02:16:29.430Z,67.97
2023-05-19T02:21:32.422Z,67.90
2023-05-19T02:26:35.413Z,67.76
2023-05-19T02:31:38.382Z,67.57
2023-05-19T02:36:46.079Z,67.67
2023-05-19T02:41:49.010Z,68.00
2023-05-19T02:46:51.944Z,68.54
2023-05-19T02:51:54.850Z,68.78
2023-05-19T02:56:58.245Z,68.85
2023-05-19T03:02:02.662Z,68.57
2023-05-19T03:07:06.303Z,68.65
2023-05-19T03:12:09.545Z,68.44
2023-05-19T03:17:12.473Z,68.25
2023-05-19T03:22:15.475Z,68.46
2023-05-19T03:27:18.336Z,68.74
2023-05-19T03:32:21.388Z,68.14
2023-05-19T03:37:24.584Z,68.36
2023-05-19T03:42:27.547Z,68.65
2023-05-19T03:47:31.797Z,69.04
2023-05-19T03:52:34.790Z,68.91
2023-05-19T03:57:37.898Z,68.73
2023-05-19T04:02:41.334Z,68.72
2023-05-19T04:07:46.876Z,68.85
2023-05-19T04:12:49.914Z,69.06
2023-05-19T04:17:52.863Z,68.89
2023-05-19T04:22:55.760Z,69.19
2023-05-19T04:27:59.008Z,69.26
2023-05-19T04:33:03.948Z,69.43
2023-05-19T04:38:06.836Z,69.29
2023-05-19T04:43:11.491Z,69.28
2023-05-19T04:48:15.247Z,69.38
2023-05-19T04:53:18.862Z,69.53
2023-05-19T04:58:21.691Z,69.52
2023-05-19T05:03:26.580Z,69.34
2023-05-19T05:08:30.412Z,69.36
2023-05-19T05:13:33.900Z,69.20
2023-05-19T05:18:38.862Z,69.07
2023-05-19T05:23:42.166Z,68.82
2023-05-19T05:28:45.314Z,68.75
2023-05-19T05:33:48.293Z,68.53
2023-05-19T05:38:51.745Z,68.29
2023-05-19T05:43:54.961Z,68.11
2023-05-19T05:48:58.245Z,67.97
2023-05-19T05:54:03.180Z,67.41
2023-05-19T05:59:06.099Z,67.21
2023-05-19T06:04:08.971Z,67.03
2023-05-19T06:09:12.518Z,66.91
2023-05-19T06:14:15.401Z,66.48
2023-05-19T06:19:20.365Z,65.98
2023-05-19T06:24:23.509Z,65.77
2023-05-19T06:29:26.425Z,65.68
2023-05-19T06:34:29.328Z,65.23
2023-05-19T06:39:32.604Z,64.66
2023-05-19T06:44:35.745Z,64.47
2023-05-19T06:49:38.730Z,63.95
2023-05-19T06:54:41.672Z,63.17
2023-05-19T06:59:46.815Z,62.90
2023-05-19T07:04:52.880Z,62.93
2023-05-19T07:09:55.978Z,61.65
2023-05-19T07:14:58.913Z,61.42
2023-05-19T07:20:02.033Z,60.19
2023-05-19T07:25:06.686Z,59.85
2023-05-19T07:30:10.146Z,59.59
2023-05-19T07:35:13.290Z,58.44
2023-05-19T07:40:16.246Z,58.19
2023-05-19T07:45:19.272Z,58.25
2023-05-19T07:50:25.902Z,58.72
2023-05-19T07:55:29.432Z,58.65
2023-05-19T08:00:32.883Z,58.55
2023-05-19T08:05:36.687Z,58.34
2023-05-19T08:10:39.769Z,58.24
2023-05-19T08:15:43.473Z,58.35
2023-05-19T08:20:46.900Z,57.85
2023-05-19T08:25:49.964Z,57.30
2023-05-19T08:30:52.977Z,56.50
2023-05-19T08:35:58.383Z,56.05
2023-05-19T08:41:01.863Z,56.54
2023-05-19T08:46:06.424Z,55.38
2023-05-19T08:51:22.143Z,55.44
2023-05-19T08:56:26.851Z,55.24
2023-05-19T09:01:31.005Z,55.19
2023-05-19T09:06:34.022Z,54.78
2023-05-19T09:11:40.034Z,54.76
2023-05-19T09:16:48.269Z,54.57
2023-05-19T09:22:04.837Z,53.70
2023-05-19T09:27:08.501Z,53.08
2023-05-19T09:32:12.032Z,52.19
2023-05-19T09:37:14.977Z,51.49
2023-05-19T09:42:29.970Z,51.60
2023-05-19T09:47:38.565Z,52.39
2023-05-19T09:52:44.828Z,52.33
2023-05-19T09:57:48.270Z,52.26
2023-05-19T10:02:51.874Z,52.51
2023-05-19T10:07:55.942Z,51.92
2023-05-19T10:13:00.882Z,51.60
2023-05-19T10:18:04.543Z,52.49
2023-05-19T10:23:07.483Z,53.22
2023-05-19T10:28:18.624Z,54.44
2023-05-19T10:33:42.212Z,54.42
2023-05-19T10:39:02.629Z,54.52
2023-05-19T10:44:39.213Z,54.94
2023-05-19T10:49:45.828Z,56.35
2023-05-19T10:54:49.995Z,57.92
2023-05-19T10:59:53.238Z,59.12
2023-05-19T11:05:13.140Z,60.53
2023-05-19T11:10:24.058Z,61.31
2023-05-19T11:15:29.223Z,62.29
2023-05-19T11:20:35.140Z,62.68
2023-05-19T11:25:54.103Z,63.19
2023-05-19T11:30:59.767Z,64.06
2023-05-19T11:36:03.276Z,64.08
2023-05-19T11:41:06.312Z,64.79
2023-05-19T11:46:09.846Z,65.54
2023-05-19T11:51:12.932Z,65.98
2023-05-19T11:56:15.831Z,66.96
2023-05-19T12:01:19.407Z,67.47
2023-05-19T12:06:22.369Z,68.07
2023-05-19T12:11:25.387Z,68.46
2023-05-19T12:16:35.633Z,68.63
2023-05-19T12:21:39.320Z,68.42
2023-05-19T12:26:42.472Z,68.74
2023-05-19T12:31:47.716Z,69.15
2023-05-19T12:36:50.846Z,69.71
2023-05-19T12:41:54.418Z,70.54
2023-05-19T12:46:59.676Z,70.77
2023-05-19T12:52:11.923Z,70.91
2023-05-19T12:57:21.186Z,70.99
2023-05-19T13:02:24.860Z,70.92
2023-05-19T13:07:28.627Z,71.39
2023-05-19T13:12:31.674Z,71.92
2023-05-19T13:17:34.860Z,71.85
2023-05-19T13:22:38.045Z,71.47
2023-05-19T13:27:40.948Z,71.35
2023-05-19T13:32:44.843Z,69.78
2023-05-19T13:37:49.568Z,67.68
2023-05-19T13:42:52.517Z,67.58
2023-05-19T13:47:55.510Z,67.32
2023-05-19T13:52:58.494Z,67.31
2023-05-19T13:58:01.498Z,66.61
2023-05-19T14:03:04.560Z,66.86
2023-05-19T14:08:07.701Z,67.63
2023-05-19T14:13:31.439Z,67.94
2023-05-19T14:18:35.814Z,68.08
2023-05-19T14:23:38.806Z,68.11
2023-05-19T14:28:42.498Z,68.18
2023-05-19T14:33:45.409Z,68.22
2023-05-19T14:38:48.236Z,68.06
2023-05-19T14:43:51.139Z,67.87
2023-05-19T14:48:54.061Z,67.43
2023-05-19T14:53:56.982Z,67.08
2023-05-19T14:58:59.962Z,66.68
2023-05-19T15:04:02.875Z,65.94
2023-05-19T15:09:06.014Z,66.02
2023-05-19T15:14:09.095Z,66.74
2023-05-19T15:19:11.999Z,67.32
2023-05-19T15:24:14.897Z,67.43
2023-05-19T15:29:17.900Z,67.69
2023-05-19T15:34:21.164Z,67.59
2023-05-19T15:39:24.395Z,67.46
2023-05-19T15:44:29.013Z,67.49
2023-05-19T15:49:32.148Z,67.72
2023-05-19T15:54:35.084Z,67.56
2023-05-19T15:59:37.932Z,67.36
2023-05-19T16:04:40.823Z,67.27
2023-05-19T16:09:43.755Z,66.89
2023-05-19T16:14:46.766Z,66.93
2023-05-19T16:19:49.675Z,66.96
2023-05-19T16:24:53.117Z,67.17
2023-05-19T16:29:56.139Z,67.24
2023-05-19T16:34:59.196Z,67.21
2023-05-19T16:40:02.303Z,67.29
2023-05-19T16:45:06.032Z,67.43
2023-05-19T16:50:09.735Z,67.50
2023-05-19T16:55:17.406Z,67.59
2023-05-19T17:00:20.639Z,67.75
2023-05-19T17:05:23.959Z,67.66
2023-05-19T17:10:27.018Z,67.79
2023-05-19T17:15:30.444Z,67.96
2023-05-19T17:20:33.621Z,68.14
2023-05-19T17:25:36.760Z,68.28
2023-05-19T17:30:41.405Z,68.49
2023-05-19T17:35:44.376Z,68.57
2023-05-19T17:40:47.549Z,68.69
2023-05-19T17:45:50.746Z,69.07
2023-05-19T17:50:53.761Z,69.30
2023-05-19T17:56:02.276Z,69.39
2023-05-19T18:01:05.768Z,69.49
2023-05-19T18:06:08.927Z,69.72
2023-05-19T18:11:16.032Z,69.87
2023-05-19T18:16:19.010Z,70.06
2023-05-19T18:21:22.048Z,70.31
2023-05-19T18:26:24.994Z,70.44
2023-05-19T18:31:28.878Z,70.59
2023-05-19T18:36:31.875Z,70.79
2023-05-19T18:41:37.480Z,70.89
2023-05-19T18:46:40.520Z,70.99
2023-05-19T18:51:43.529Z,71.18
2023-05-19T18:56:46.760Z,71.31
2023-05-19T19:01:49.789Z,71.48
2023-05-19T19:06:52.897Z,71.78
2023-05-19T19:11:55.905Z,72.11
2023-05-19T19:16:58.901Z,72.39
2023-05-19T19:22:01.874Z,72.79
2023-05-19T19:27:05.453Z,73.10
2023-05-19T19:32:08.812Z,73.51
2023-05-19T19:37:14.493Z,73.91
2023-05-19T19:42:17.431Z,74.50
2023-05-19T19:47:20.413Z,74.99
2023-05-19T19:52:23.886Z,75.24
2023-05-19T19:57:29.166Z,75.18
2023-05-19T20:02:32.229Z,75.44
2023-05-19T20:07:35.290Z,75.89
2023-05-19T20:12:38.353Z,75.68
2023-05-19T20:17:41.300Z,76.07
2023-05-19T20:22:46.162Z,76.32
2023-05-19T20:27:49.239Z,76.36
2023-05-19T20:32:52.316Z,76.78
2023-05-19T20:37:55.406Z,76.82
2023-05-19T20:42:58.414Z,76.78
2023-05-19T20:48:02.810Z,76.73
2023-05-19T20:53:07.460Z,76.78
2023-05-19T20:58:10.595Z,76.83
2023-05-19T21:03:13.700Z,76.96
2023-05-19T21:08:16.983Z,77.25
2023-05-19T21:13:20.171Z,77.42
2023-05-19T21:18:23.140Z,77.38
2023-05-19T21:23:26.085Z,77.62
2023-05-19T21:28:29.019Z,77.67
2023-05-19T21:33:32.096Z,77.67
2023-05-19T21:38:35.123Z,77.91
2023-05-19T21:43:38.184Z,77.83
2023-05-19T21:48:41.150Z,77.58
2023-05-19T21:53:44.077Z,77.62
2023-05-19T21:58:46.970Z,77.68
2023-05-19T22:03:50.104Z,77.49
2023-05-19T22:08:53.149Z,77.85
2023-05-19T22:13:56.228Z,77.86
2023-05-19T22:18:59.261Z,77.97
2023-05-19T22:24:02.662Z,78.00
2023-05-19T22:29:05.714Z,78.04
2023-05-19T22:34:08.682Z,78.00
2023-05-19T22:39:12.716Z,78.01
2023-05-19T22:44:16.472Z,77.76
2023-05-19T22:49:23.107Z,77.68
2023-05-19T22:54:26.108Z,77.61
2023-05-19T22:59:29.947Z,77.38
2023-05-19T23:04:34.423Z,77.44
2023-05-19T23:09:37.501Z,77.39
2023-05-19T23:14:40.506Z,77.27
2023-05-19T23:19:43.665Z,77.24
2023-05-19T23:24:46.692Z,77.35
2023-05-19T23:29:51.829Z,77.40
2023-05-19T23:34:54.840Z,77.42
2023-05-19T23:39:57.827Z,77.35
2023-05-19T23:45:00.788Z,77.35
2023-05-19T23:50:04.052Z,77.21
2023-05-19T23:55:08.307Z,77.15
